ROMMA est une association bénévole à but non lucratif. Votre soutien est indispensable : ADHERER à ROMMA ou FAIRE un DON

Val-d'Arly - (73, Savoie)

Beaufortain (2050 m)   Longitude: 06° 35' 21" E   Latitude: 45° 46' 53" N Station romma n°118
 

Détail journalier du     <<     >>

Température Precipitation Humidité Vent Dir Rafale Dir. rafale Ensol.
Heure (°C) (mm) (%) (km/h) (km/h) (min)
01:00 19.00547O13NO0
02:00 19.10526O10O0
03:00 19.20515O6NO0
04:00 18.60552NNO6O0
05:00 18.30574NE8E0
06:00 18.80476E13ESE0
07:00 18.40534NNE10E10
08:00 20.90491ENE6ENE60
09:00 20.60521N5N60
10:00 21.20532NNE10ONO40
11:00 21.20562ONO10ONO20
12:00 21.10574NE10ONO60
13:00 21.30589NE19NE60
14:00 21.805510NE23NNE60
15:00 22.20568NE19NE40
16:00 21.406312NE24NNE50
17:00 22.306112NE21NE60
18:00 18.207212NE32S10
19:00 15.41.27534E74E0
20:00 15.40.27926ESE50ESE0
21:00
22:00
23:00 15.606420OSO35OSO0
minuit 17.304812ENE23ENE0

Graphique du 25-07-2019

 

Serveur OMMA